Time;durP1;ratioP1;P1;durP2;ratioP2;P2;SDS_P1;SDS_P2;PMS_P1;PMS_P2;Temp;Humidity;BMP_temperature;BMP_pressure;BME280_temperature;BME280_humidity;BME280_pressure;Samples;Min_cycle;Max_cycle;Signal;HPM_P1;HPM_P2
2021/06/06 00:00:19;;;;;;;8.82;3.60;;;;;;;;;;5117711;28;20039;-66
2021/06/06 00:02:45;;;;;;;7.22;4.22;;;;;;;;;;5117937;28;20016;-69
2021/06/06 00:05:12;;;;;;;5.50;3.00;;;;;;;;;;5117506;28;20020;-68
2021/06/06 00:07:38;;;;;;;4.05;3.75;;;;;;;;;;5117918;28;20059;-67
2021/06/06 00:10:06;;;;;;;7.40;3.28;;;;;;;;;;5117510;28;20016;-68
2021/06/06 00:12:32;;;;;;;;;;;;;;;;;;5118211;28;20023;-67
2021/06/06 00:14:58;;;;;;;4.30;2.88;;;;;;;;;;5099210;28;19910;-67
2021/06/06 00:17:24;;;;;;;5.47;3.47;;;;;;;;;;5116908;28;20361;-69
2021/06/06 00:19:50;;;;;;;6.05;3.35;;;;;;;;;;5117670;28;20012;-66
2021/06/06 00:22:16;;;;;;;3.35;3.05;;;;;;;;;;5117614;28;20333;-67
2021/06/06 00:24:43;;;;;;;3.40;3.10;;;;;;;;;;5116715;28;20337;-68
2021/06/06 00:27:09;;;;;;;10.80;3.95;;;;;;;;;;5116951;28;20022;-69
2021/06/06 00:29:36;;;;;;;9.63;4.32;;;;;;;;;;5117557;28;20356;-66
2021/06/06 00:32:02;;;;;;;4.82;3.55;;;;;;;;;;5116816;28;20031;-67
2021/06/06 00:34:29;;;;;;;6.63;4.72;;;;;;;;;;5117138;28;20019;-68
2021/06/06 00:36:55;;;;;;;9.45;4.38;;;;;;;;;;5117308;28;20020;-68
2021/06/06 00:39:21;;;;;;;8.23;4.47;;;;;;;;;;5116728;28;20355;-67
2021/06/06 00:41:49;;;;;;;10.23;4.22;;;;;;;;;;5117225;28;20026;-68
2021/06/06 00:44:15;;;;;;;8.88;3.78;;;;;;;;;;5116883;28;20019;-67
2021/06/06 00:46:42;;;;;;;8.10;3.63;;;;;;;;;;5116324;28;20543;-67
2021/06/06 00:49:08;;;;;;;7.22;3.20;;;;;;;;;;5116213;28;20026;-67
2021/06/06 00:51:38;;;;;;;7.45;3.65;;;;;;;;;;5116433;28;20098;-66
2021/06/06 00:54:15;;;;;;;7.18;3.85;;;;;;;;;;5116461;28;20015;-67
2021/06/06 00:56:45;;;;;;;3.78;3.15;;;;;;;;;;5116819;28;20020;-67
2021/06/06 00:59:11;;;;;;;8.63;4.18;;;;;;;;;;5116285;28;20024;-67
2021/06/06 01:01:38;;;;;;;5.00;3.72;;;;;;;;;;5074665;28;20041;-67
2021/06/06 01:04:04;;;;;;;5.15;3.65;;;;;;;;;;5075640;28;20056;-67
2021/06/06 01:06:38;;;;;;;8.20;4.30;;;;;;;;;;5074334;28;20027;-68
2021/06/06 01:09:05;;;;;;;6.90;3.45;;;;;;;;;;5076677;28;20017;-66
2021/06/06 01:11:36;;;;;;;5.10;3.40;;;;;;;;;;5075712;28;20028;-67
2021/06/06 01:14:06;;;;;;;5.72;3.85;;;;;;;;;;5075614;28;20353;-66
2021/06/06 01:16:34;;;;;;;5.28;3.53;;;;;;;;;;5076253;28;20024;-68
2021/06/06 01:19:04;;;;;;;4.65;3.33;;;;;;;;;;5075927;28;20453;-67
2021/06/06 01:21:49;;;;;;;9.98;3.85;;;;;;;;;;5073953;28;20454;-66
2021/06/06 01:24:18;;;;;;;5.53;3.92;;;;;;;;;;5076032;28;20021;-67
2021/06/06 01:26:47;;;;;;;7.95;3.47;;;;;;;;;;5075503;28;20414;-67
2021/06/06 01:29:27;;;;;;;6.40;4.43;;;;;;;;;;5075397;28;20446;-68
2021/06/06 01:31:58;;;;;;;4.68;3.75;;;;;;;;;;5075616;28;20465;-67
2021/06/06 01:34:26;;;;;;;11.13;4.30;;;;;;;;;;5075052;28;20024;-66
2021/06/06 01:36:58;;;;;;;11.35;4.25;;;;;;;;;;5075308;28;20021;-66
2021/06/06 01:39:25;;;;;;;5.72;3.92;;;;;;;;;;5074934;28;20036;-67
2021/06/06 01:42:00;;;;;;;8.98;4.22;;;;;;;;;;5074827;28;20020;-66
2021/06/06 01:44:29;;;;;;;9.68;4.60;;;;;;;;;;5074951;28;20021;-67
2021/06/06 01:46:58;;;;;;;4.30;3.85;;;;;;;;;;5075315;28;20016;-67
2021/06/06 01:49:25;;;;;;;5.32;4.13;;;;;;;;;;5073404;28;20020;-67
2021/06/06 01:51:53;;;;;;;6.15;4.22;;;;;;;;;;5074830;28;20052;-67
2021/06/06 01:54:20;;;;;;;6.60;4.00;;;;;;;;;;5075081;28;20062;-67
2021/06/06 01:56:48;;;;;;;6.80;4.28;;;;;;;;;;5074813;28;20028;-66
2021/06/06 01:59:22;;;;;;;8.57;4.25;;;;;;;;;;5075172;28;20020;-67
2021/06/06 02:01:48;;;;;;;5.80;4.28;;;;;;;;;;5114776;28;20031;-67
2021/06/06 02:04:14;;;;;;;4.38;3.97;;;;;;;;;;5097079;28;20026;-67
2021/06/06 02:06:46;;;;;;;9.77;4.43;;;;;;;;;;5115310;28;20348;-66
2021/06/06 02:09:15;;;;;;;4.15;3.72;;;;;;;;;;5114947;28;20098;-67
2021/06/06 02:11:44;;;;;;;7.50;4.55;;;;;;;;;;5096854;28;20094;-66
2021/06/06 02:14:13;;;;;;;9.48;3.85;;;;;;;;;;5115169;28;20019;-65
2021/06/06 02:16:42;;;;;;;12.93;5.65;;;;;;;;;;5114498;28;20012;-67
2021/06/06 02:19:08;;;;;;;5.85;4.88;;;;;;;;;;5115056;28;20102;-67
2021/06/06 02:21:35;;;;;;;5.30;4.20;;;;;;;;;;5115636;28;20023;-68
2021/06/06 02:24:01;;;;;;;6.53;5.03;;;;;;;;;;5114676;28;20047;-69
2021/06/06 02:26:46;;;;;;;10.88;4.57;;;;;;;;;;5115220;28;20026;-67
2021/06/06 02:29:23;;;;;;;5.97;4.30;;;;;;;;;;5114996;28;20406;-65
2021/06/06 02:31:55;;;;;;;4.93;3.75;;;;;;;;;;5114264;28;20425;-67
2021/06/06 02:34:24;;;;;;;8.77;4.50;;;;;;;;;;5114507;28;20016;-64
2021/06/06 02:37:02;;;;;;;7.57;5.07;;;;;;;;;;5114462;28;20098;-67
2021/06/06 02:39:28;;;;;;;12.50;4.70;;;;;;;;;;5114727;28;20022;-64
2021/06/06 02:42:07;;;;;;;5.30;4.75;;;;;;;;;;5114659;28;20080;-66
2021/06/06 02:44:39;;;;;;;7.22;4.93;;;;;;;;;;5114999;28;20047;-66
2021/06/06 02:47:06;;;;;;;7.45;4.50;;;;;;;;;;5114682;28;20015;-66
2021/06/06 02:49:35;;;;;;;11.65;5.07;;;;;;;;;;5114300;28;20495;-67
2021/06/06 02:52:04;;;;;;;4.63;4.20;;;;;;;;;;5114138;28;20032;-65
2021/06/06 02:54:37;;;;;;;17.42;4.82;;;;;;;;;;5096185;28;20011;-71
2021/06/06 02:57:08;;;;;;;8.18;4.57;;;;;;;;;;5096231;28;20053;-64
2021/06/06 02:59:37;;;;;;;7.28;5.43;;;;;;;;;;5114052;28;20050;-69
2021/06/06 03:02:05;;;;;;;6.85;5.18;;;;;;;;;;5114746;28;20069;-67
2021/06/06 03:04:32;;;;;;;11.35;5.70;;;;;;;;;;5114360;28;20072;-68
2021/06/06 03:07:04;;;;;;;5.80;4.50;;;;;;;;;;5114054;28;20015;-67
2021/06/06 03:09:31;;;;;;;6.47;5.65;;;;;;;;;;5114328;28;20023;-68
2021/06/06 03:11:58;;;;;;;10.35;5.60;;;;;;;;;;5114062;28;20030;-71
2021/06/06 03:14:26;;;;;;;8.57;5.15;;;;;;;;;;5114211;28;20019;-71
2021/06/06 03:16:57;;;;;;;6.60;5.00;;;;;;;;;;5114534;28;20020;-72
2021/06/06 03:19:25;;;;;;;6.07;4.82;;;;;;;;;;5096421;28;20076;-71
2021/06/06 03:21:51;;;;;;;8.27;5.53;;;;;;;;;;5096020;28;20046;-66
2021/06/06 03:24:32;;;;;;;7.60;5.10;;;;;;;;;;5113896;28;20034;-68
2021/06/06 03:26:58;;;;;;;7.00;5.20;;;;;;;;;;5095565;28;20026;-67
2021/06/06 03:29:30;;;;;;;12.27;6.15;;;;;;;;;;5114678;28;20015;-68
2021/06/06 03:32:00;;;;;;;8.40;5.53;;;;;;;;;;5113960;28;20487;-67
2021/06/06 03:34:26;;;;;;;6.78;6.05;;;;;;;;;;5113573;28;20099;-68
2021/06/06 03:36:52;;;;;;;6.13;5.32;;;;;;;;;;5114037;28;20023;-68
2021/06/06 03:39:26;;;;;;;11.37;6.80;;;;;;;;;;5113777;28;20472;-67
2021/06/06 03:41:52;;;;;;;7.20;5.50;;;;;;;;;;5113729;28;20251;-68
2021/06/06 03:44:18;;;;;;;7.70;5.97;;;;;;;;;;5113804;28;20104;-68
2021/06/06 03:46:44;;;;;;;7.43;5.82;;;;;;;;;;5114174;28;20022;-67
2021/06/06 03:49:11;;;;;;;6.63;6.03;;;;;;;;;;5113618;28;20015;-68
2021/06/06 03:51:37;;;;;;;11.82;7.28;;;;;;;;;;5113943;28;20081;-67
2021/06/06 03:54:05;;;;;;;9.90;5.28;;;;;;;;;;5113625;28;20045;-68
2021/06/06 03:56:32;;;;;;;9.60;6.32;;;;;;;;;;5114202;28;20016;-68
2021/06/06 03:58:58;;;;;;;9.02;6.13;;;;;;;;;;5114122;28;20102;-67
2021/06/06 04:01:24;;;;;;;9.85;5.93;;;;;;;;;;5113198;28;20147;-68
2021/06/06 04:03:52;;;;;;;7.57;6.13;;;;;;;;;;5113534;28;20022;-68
2021/06/06 04:06:18;;;;;;;8.18;6.65;;;;;;;;;;5114063;28;20024;-69
2021/06/06 04:08:44;;;;;;;6.18;5.57;;;;;;;;;;5113285;28;20046;-67
2021/06/06 04:11:11;;;;;;;7.50;6.05;;;;;;;;;;5113403;28;20032;-69
2021/06/06 04:13:37;;;;;;;10.93;5.60;;;;;;;;;;5114028;28;20020;-67
2021/06/06 04:16:05;;;;;;;6.93;6.28;;;;;;;;;;5095156;28;20110;-68
2021/06/06 04:18:32;;;;;;;10.23;6.22;;;;;;;;;;5113673;28;20016;-68
2021/06/06 04:21:00;;;;;;;13.35;7.05;;;;;;;;;;5095373;28;20026;-69
2021/06/06 04:23:26;;;;;;;13.73;7.55;;;;;;;;;;5113446;28;20012;-68
2021/06/06 04:25:52;;;;;;;11.88;7.28;;;;;;;;;;5116320;28;20042;-68
2021/06/06 04:28:19;;;;;;;10.80;6.43;;;;;;;;;;5117256;28;20020;-68
2021/06/06 04:30:46;;;;;;;10.85;7.40;;;;;;;;;;5098526;28;20080;-67
2021/06/06 04:33:12;;;;;;;13.20;7.43;;;;;;;;;;5117448;28;20023;-67
2021/06/06 04:35:39;;;;;;;9.63;6.82;;;;;;;;;;5099290;28;20024;-68
2021/06/06 04:38:06;;;;;;;8.75;7.20;;;;;;;;;;5116763;28;20091;-67
2021/06/06 04:40:32;;;;;;;20.23;10.13;;;;;;;;;;5116744;28;20062;-68
2021/06/06 04:42:59;;;;;;;13.20;7.47;;;;;;;;;;5098353;28;20023;-68
2021/06/06 04:45:25;;;;;;;19.48;10.13;;;;;;;;;;5116928;28;20457;-68
2021/06/06 04:47:52;;;;;;;19.48;10.65;;;;;;;;;;5116569;28;20341;-68
2021/06/06 04:50:19;;;;;;;11.63;6.78;;;;;;;;;;5116772;28;20111;-69
2021/06/06 04:52:46;;;;;;;18.80;11.60;;;;;;;;;;5116679;28;20372;-69
2021/06/06 04:55:18;;;;;;;14.15;8.25;;;;;;;;;;5117258;28;20076;-68
2021/06/06 04:57:44;;;;;;;15.82;9.65;;;;;;;;;;5116390;28;20094;-68
2021/06/06 05:00:17;;;;;;;14.63;8.47;;;;;;;;;;5097940;28;20043;-68
2021/06/06 05:02:43;;;;;;;14.55;8.55;;;;;;;;;;5116736;28;20247;-69
2021/06/06 05:05:09;;;;;;;9.32;6.20;;;;;;;;;;5115959;28;20064;-68
2021/06/06 05:07:35;;;;;;;9.63;8.00;;;;;;;;;;5117354;28;20022;-69
2021/06/06 05:10:03;;;;;;;17.50;9.40;;;;;;;;;;5116450;28;20042;-69
2021/06/06 05:12:29;;;;;;;12.45;9.60;;;;;;;;;;5114503;28;20027;-68
2021/06/06 05:14:55;;;;;;;15.90;8.70;;;;;;;;;;5115053;28;20012;-69
2021/06/06 05:17:22;;;;;;;11.98;7.43;;;;;;;;;;5096616;28;20012;-68
2021/06/06 05:19:48;;;;;;;18.42;10.50;;;;;;;;;;5114481;28;20110;-68
2021/06/06 05:22:14;;;;;;;13.03;7.80;;;;;;;;;;5114734;28;20023;-69
2021/06/06 05:24:40;;;;;;;17.83;10.23;;;;;;;;;;5114962;28;20452;-67
2021/06/06 05:27:07;;;;;;;10.77;8.27;;;;;;;;;;5114408;28;20244;-69
2021/06/06 05:29:33;;;;;;;14.93;8.73;;;;;;;;;;5114891;28;20019;-68
2021/06/06 05:31:59;;;;;;;10.70;9.52;;;;;;;;;;5114214;28;20023;-68
2021/06/06 05:34:25;;;;;;;10.63;8.70;;;;;;;;;;5114372;28;20044;-68
2021/06/06 05:36:51;;;;;;;15.25;9.05;;;;;;;;;;5114585;28;20475;-67
2021/06/06 05:39:18;;;;;;;14.27;8.73;;;;;;;;;;5113848;28;20697;-67
2021/06/06 05:41:44;;;;;;;20.03;8.83;;;;;;;;;;5096236;28;20021;-68
2021/06/06 05:44:10;;;;;;;9.90;8.15;;;;;;;;;;5095988;28;20788;-68
2021/06/06 05:46:37;;;;;;;11.45;7.70;;;;;;;;;;5113769;28;20064;-66
2021/06/06 05:49:03;;;;;;;14.88;8.40;;;;;;;;;;5114346;28;20046;-68
2021/06/06 05:51:30;;;;;;;16.33;8.30;;;;;;;;;;5114088;28;20038;-68
2021/06/06 05:53:56;;;;;;;14.07;10.20;;;;;;;;;;5113979;28;20012;-68
2021/06/06 05:56:23;;;;;;;15.93;10.25;;;;;;;;;;5095878;28;20023;-67
2021/06/06 05:58:49;;;;;;;14.75;11.23;;;;;;;;;;5114017;28;20015;-65
2021/06/06 06:01:18;;;;;;;12.55;10.30;;;;;;;;;;5110720;28;20124;-66
2021/06/06 06:03:44;;;;;;;13.13;10.63;;;;;;;;;;5114025;28;20007;-67
2021/06/06 06:06:10;;;;;;;15.13;12.02;;;;;;;;;;5113566;28;20043;-68
2021/06/06 06:08:38;;;;;;;12.13;10.90;;;;;;;;;;5113667;28;20012;-67
2021/06/06 06:11:05;;;;;;;15.85;11.70;;;;;;;;;;5113838;28;20023;-68
2021/06/06 06:13:32;;;;;;;13.02;11.40;;;;;;;;;;5095470;28;20453;-69
2021/06/06 06:16:00;;;;;;;25.42;11.75;;;;;;;;;;5095194;28;20375;-68
2021/06/06 06:18:26;;;;;;;;;;;;;;;;;;5113899;28;20019;-70
2021/06/06 06:20:52;;;;;;;12.57;11.25;;;;;;;;;;5113279;28;20344;-67
2021/06/06 06:23:18;;;;;;;13.52;11.43;;;;;;;;;;5113695;28;20524;-68
2021/06/06 06:25:45;;;;;;;17.20;11.40;;;;;;;;;;5113547;28;20018;-68
2021/06/06 06:28:11;;;;;;;15.13;12.23;;;;;;;;;;5112908;28;20058;-65
2021/06/06 06:30:39;;;;;;;12.87;11.33;;;;;;;;;;5113510;28;20039;-68
2021/06/06 06:33:06;;;;;;;13.10;10.38;;;;;;;;;;5113491;28;20020;-64
2021/06/06 06:35:33;;;;;;;;;;;;;;;;;;5113225;28;20011;-71
2021/06/06 06:37:59;;;;;;;13.90;11.32;;;;;;;;;;5113458;28;19903;-69
2021/06/06 06:40:26;;;;;;;10.73;9.65;;;;;;;;;;5095064;28;20076;-69
2021/06/06 06:42:52;;;;;;;12.50;9.60;;;;;;;;;;5094649;28;20107;-68
2021/06/06 06:45:20;;;;;;;15.13;11.02;;;;;;;;;;5113373;28;20015;-70
2021/06/06 06:47:46;;;;;;;11.48;10.32;;;;;;;;;;5112767;28;20016;-67
2021/06/06 06:50:14;;;;;;;12.35;8.32;;;;;;;;;;5112823;28;20072;-69
2021/06/06 06:52:40;;;;;;;9.13;8.00;;;;;;;;;;5113100;28;20077;-69
2021/06/06 06:55:13;;;;;;;11.60;8.88;;;;;;;;;;5094891;28;20019;-67
2021/06/06 06:57:39;;;;;;;16.20;9.18;;;;;;;;;;5110993;28;20022;-65
2021/06/06 07:00:06;;;;;;;11.68;10.60;;;;;;;;;;5090940;28;20047;-70
2021/06/06 07:02:32;;;;;;;8.90;8.20;;;;;;;;;;5092374;28;20416;-69
2021/06/06 07:04:58;;;;;;;10.65;9.60;;;;;;;;;;5092365;28;20024;-69
2021/06/06 07:07:26;;;;;;;11.27;9.00;;;;;;;;;;5092561;28;20095;-68
2021/06/06 07:09:52;;;;;;;11.27;9.00;;;;;;;;;;5090885;28;20016;-69
2021/06/06 07:12:18;;;;;;;14.52;8.88;;;;;;;;;;5092455;28;20088;-67
2021/06/06 07:14:44;;;;;;;10.88;9.70;;;;;;;;;;5092511;28;20116;-67
2021/06/06 07:17:10;;;;;;;10.45;8.95;;;;;;;;;;5092105;28;20017;-69
2021/06/06 07:19:37;;;;;;;11.95;8.40;;;;;;;;;;5092474;28;20049;-67
2021/06/06 07:22:03;;;;;;;17.88;10.25;;;;;;;;;;5092446;28;20130;-67
2021/06/06 07:24:30;;;;;;;12.43;9.65;;;;;;;;;;5092676;28;20016;-66
2021/06/06 07:26:56;;;;;;;12.23;10.70;;;;;;;;;;5093756;28;20554;-67
2021/06/06 07:29:24;;;;;;;14.20;10.70;;;;;;;;;;5092433;28;20478;-67
2021/06/06 07:31:54;;;;;;;13.32;11.35;;;;;;;;;;5093299;28;20277;-67
2021/06/06 07:34:21;;;;;;;12.52;11.50;;;;;;;;;;5093373;28;20096;-67
2021/06/06 07:36:47;;;;;;;13.73;10.98;;;;;;;;;;5093733;28;20070;-68
2021/06/06 07:39:14;;;;;;;12.50;11.40;;;;;;;;;;5092057;28;20024;-68
2021/06/06 07:41:40;;;;;;;21.85;11.45;;;;;;;;;;5093397;28;20095;-66
2021/06/06 07:44:06;;;;;;;19.50;11.57;;;;;;;;;;5092313;28;20020;-68
2021/06/06 07:46:32;;;;;;;12.07;10.70;;;;;;;;;;5093645;28;20099;-67
2021/06/06 07:48:59;;;;;;;11.85;10.65;;;;;;;;;;5092211;28;20464;-68
2021/06/06 07:51:25;;;;;;;16.92;11.73;;;;;;;;;;5093181;28;20035;-68
2021/06/06 07:53:51;;;;;;;12.67;10.93;;;;;;;;;;5093548;28;20012;-67
2021/06/06 07:56:18;;;;;;;15.52;12.32;;;;;;;;;;5093172;28;20024;-66
2021/06/06 07:58:44;;;;;;;13.68;12.23;;;;;;;;;;5093521;28;20078;-68
2021/06/06 08:01:10;;;;;;;12.68;11.00;;;;;;;;;;5113422;28;20491;-68
2021/06/06 08:03:37;;;;;;;13.23;11.75;;;;;;;;;;5117113;28;20098;-67
2021/06/06 08:06:05;;;;;;;12.80;11.40;;;;;;;;;;5117628;28;20027;-68
2021/06/06 08:08:31;;;;;;;16.42;10.52;;;;;;;;;;5117544;28;20016;-68
2021/06/06 08:10:59;;;;;;;14.60;12.43;;;;;;;;;;5098913;28;20066;-67
2021/06/06 08:13:25;;;;;;;13.95;10.60;;;;;;;;;;5117804;28;20240;-66
2021/06/06 08:15:51;;;;;;;12.43;11.13;;;;;;;;;;5099213;28;20015;-68
2021/06/06 08:18:19;;;;;;;12.65;9.70;;;;;;;;;;5117124;28;20459;-68
2021/06/06 08:20:47;;;;;;;13.55;10.13;;;;;;;;;;5099174;28;20069;-66
2021/06/06 08:23:13;;;;;;;12.13;11.02;;;;;;;;;;5117275;28;20456;-68
2021/06/06 08:25:40;;;;;;;15.50;10.95;;;;;;;;;;5098674;28;20026;-66
2021/06/06 08:28:07;;;;;;;14.25;11.45;;;;;;;;;;5116908;28;20024;-67
2021/06/06 08:30:44;;;;;;;14.40;12.13;;;;;;;;;;5116796;28;20027;-68
2021/06/06 08:33:10;;;;;;;15.88;11.18;;;;;;;;;;5098582;28;20107;-67
2021/06/06 08:35:37;;;;;;;14.02;10.85;;;;;;;;;;5117078;28;20011;-68
2021/06/06 08:38:04;;;;;;;12.73;11.10;;;;;;;;;;5116993;28;20016;-67
2021/06/06 08:40:38;;;;;;;13.38;11.77;;;;;;;;;;5116939;28;20020;-68
2021/06/06 08:43:05;;;;;;;14.35;11.32;;;;;;;;;;5116713;28;20536;-66
2021/06/06 08:45:36;;;;;;;14.43;10.88;;;;;;;;;;5116356;28;20102;-67
2021/06/06 08:48:05;;;;;;;12.70;11.50;;;;;;;;;;5116842;28;20023;-67
2021/06/06 08:50:39;;;;;;;10.20;9.02;;;;;;;;;;5098494;28;20118;-67
2021/06/06 08:53:26;;;;;;;13.20;11.35;;;;;;;;;;5116474;28;20023;-67
2021/06/06 08:56:17;;;;;;;12.60;10.15;;;;;;;;;;5116578;28;20419;-68
2021/06/06 08:58:46;;;;;;;15.60;10.77;;;;;;;;;;5116133;28;20015;-66
2021/06/06 09:01:21;;;;;;;12.27;11.00;;;;;;;;;;5116448;28;20051;-68
2021/06/06 09:03:49;;;;;;;11.85;10.52;;;;;;;;;;5116349;28;20023;-68
2021/06/06 09:06:24;;;;;;;13.50;11.40;;;;;;;;;;5115710;28;20022;-68
2021/06/06 09:08:50;;;;;;;17.17;11.43;;;;;;;;;;5093139;28;20027;-66
2021/06/06 09:11:18;;;;;;;12.48;11.15;;;;;;;;;;5107621;28;20468;-66
2021/06/06 09:13:44;;;;;;;12.23;11.13;;;;;;;;;;5105045;28;20368;-67
2021/06/06 09:16:21;;;;;;;12.32;11.02;;;;;;;;;;5116160;27;20460;-69
2021/06/06 09:18:58;;;;;;;12.63;11.30;;;;;;;;;;5127058;27;20015;-69
2021/06/06 09:21:24;;;;;;;15.05;12.70;;;;;;;;;;5104715;27;20500;-70
2021/06/06 09:23:52;;;;;;;35.08;17.92;;;;;;;;;;5077240;28;20024;-72
2021/06/06 09:26:18;;;;;;;52.25;24.67;;;;;;;;;;5103419;28;20008;-73
2021/06/06 09:28:45;;;;;;;37.65;19.30;;;;;;;;;;5103373;28;20069;-73
2021/06/06 09:31:18;;;;;;;87.50;39.05;;;;;;;;;;5085716;28;20085;-70
2021/06/06 09:33:48;;;;;;;92.03;54.42;;;;;;;;;;5109627;28;20099;-70
2021/06/06 09:36:22;;;;;;;67.20;38.38;;;;;;;;;;5106273;28;20083;-68
2021/06/06 09:38:50;;;;;;;53.58;40.70;;;;;;;;;;5102619;28;20016;-69
2021/06/06 09:41:32;;;;;;;43.58;24.08;;;;;;;;;;5093212;28;20360;-67
2021/06/06 09:44:24;;;;;;;29.98;17.33;;;;;;;;;;5114908;28;20047;-68
2021/06/06 09:46:50;;;;;;;47.53;24.58;;;;;;;;;;5080394;28;20402;-68
2021/06/06 09:49:37;;;;;;;24.55;15.30;;;;;;;;;;5094974;28;20012;-67
2021/06/06 09:52:16;;;;;;;33.03;18.02;;;;;;;;;;5097507;28;20030;-71
2021/06/06 09:54:45;;;;;;;15.95;13.57;;;;;;;;;;5102044;28;20099;-70
2021/06/06 09:57:31;;;;;;;23.55;19.38;;;;;;;;;;5109938;28;20012;-69
2021/06/06 10:00:11;;;;;;;19.75;15.90;;;;;;;;;;5112836;28;20032;-67
2021/06/06 10:02:43;;;;;;;72.20;64.65;;;;;;;;;;5095095;28;20464;-68
2021/06/06 10:05:30;;;;;;;33.30;23.48;;;;;;;;;;5095717;28;20020;-70
2021/06/06 10:08:05;;;;;;;14.05;11.95;;;;;;;;;;5090427;28;20016;-69
2021/06/06 10:10:37;;;;;;;13.73;12.30;;;;;;;;;;5111829;28;20047;-69
2021/06/06 10:13:04;;;;;;;17.20;12.52;;;;;;;;;;5114827;28;20035;-72
2021/06/06 10:15:37;;;;;;;20.55;12.10;;;;;;;;;;5096426;28;20372;-71
2021/06/06 10:18:13;;;;;;;44.22;19.23;;;;;;;;;;5114759;28;20356;-70
2021/06/06 10:20:41;;;;;;;43.33;17.15;;;;;;;;;;5114749;28;20019;-71
2021/06/06 10:23:11;;;;;;;34.47;20.98;;;;;;;;;;5113759;28;20019;-72
2021/06/06 10:25:48;;;;;;;14.52;11.20;;;;;;;;;;5114745;28;20015;-70
2021/06/06 10:28:16;;;;;;;19.70;12.80;;;;;;;;;;5114541;28;20015;-71
2021/06/06 10:30:51;;;;;;;18.38;12.32;;;;;;;;;;5096171;28;20035;-70
2021/06/06 10:33:20;;;;;;;21.08;13.55;;;;;;;;;;5114798;28;20027;-71
2021/06/06 10:35:46;;;;;;;18.10;13.55;;;;;;;;;;5096346;28;20448;-74
2021/06/06 10:38:14;;;;;;;25.45;12.70;;;;;;;;;;5103910;27;20022;-73
2021/06/06 10:40:45;;;;;;;25.20;17.60;;;;;;;;;;5119859;27;20012;-72
2021/06/06 10:43:18;;;;;;;14.13;12.93;;;;;;;;;;5098969;28;20077;-70
2021/06/06 10:45:49;;;;;;;19.27;14.15;;;;;;;;;;5114268;28;20016;-71
2021/06/06 10:48:24;;;;;;;21.20;13.40;;;;;;;;;;5105117;27;20468;-70
2021/06/06 10:50:53;;;;;;;21.35;13.75;;;;;;;;;;5116080;27;20114;-70
2021/06/06 10:53:20;;;;;;;20.63;12.20;;;;;;;;;;5135144;27;20015;-72
2021/06/06 10:55:50;;;;;;;16.63;11.82;;;;;;;;;;5134893;27;20102;-68
2021/06/06 10:58:27;;;;;;;15.50;13.70;;;;;;;;;;5128662;27;20026;-68
2021/06/06 11:00:55;;;;;;;21.30;12.45;;;;;;;;;;5126396;27;20054;-71
2021/06/06 11:03:27;;;;;;;13.73;12.32;;;;;;;;;;5098694;28;20554;-75
2021/06/06 11:05:55;;;;;;;14.85;13.30;;;;;;;;;;5095761;28;20337;-73
2021/06/06 11:08:31;;;;;;;16.20;14.48;;;;;;;;;;5116899;28;20024;-68
2021/06/06 11:11:09;;;;;;;19.27;14.73;;;;;;;;;;5113666;28;20039;-69
2021/06/06 11:13:40;;;;;;;19.45;14.60;;;;;;;;;;5119373;28;20027;-72
2021/06/06 11:16:15;;;;;;;18.13;13.68;;;;;;;;;;5107204;28;20039;-71
2021/06/06 11:18:54;;;;;;;13.90;11.95;;;;;;;;;;5101950;28;20029;-70
2021/06/06 11:21:39;;;;;;;16.10;12.57;;;;;;;;;;5102191;28;20020;-74
2021/06/06 11:24:07;;;;;;;22.10;12.80;;;;;;;;;;5085573;28;20016;-72
2021/06/06 11:26:33;;;;;;;12.45;11.23;;;;;;;;;;5082712;28;20023;-72
2021/06/06 11:29:05;;;;;;;12.63;11.43;;;;;;;;;;5103440;28;20016;-69
2021/06/06 11:31:33;;;;;;;13.30;11.65;;;;;;;;;;5103412;28;20763;-71
2021/06/06 11:33:59;;;;;;;12.27;11.00;;;;;;;;;;5098998;27;20030;-72
2021/06/06 11:36:34;;;;;;;11.45;10.05;;;;;;;;;;5138904;27;20015;-72
2021/06/06 11:39:32;;;;;;;12.07;10.25;;;;;;;;;;5111972;27;20019;-70
2021/06/06 11:41:59;;;;;;;10.93;9.88;;;;;;;;;;5064244;28;20537;-68
2021/06/06 11:44:37;;;;;;;12.10;10.77;;;;;;;;;;5109960;27;20027;-70
2021/06/06 11:47:12;;;;;;;12.13;8.48;;;;;;;;;;5118007;27;20019;-70
2021/06/06 11:49:46;;;;;;;39.80;35.80;;;;;;;;;;5104865;27;20160;-71
2021/06/06 11:52:24;;;;;;;10.02;9.02;;;;;;;;;;5096186;27;20115;-70
2021/06/06 11:55:02;;;;;;;9.32;8.52;;;;;;;;;;5097102;28;20012;-69
2021/06/06 11:57:34;;;;;;;9.65;6.53;;;;;;;;;;5095417;28;20024;-70
2021/06/06 12:00:21;;;;;;;5.95;4.53;;;;;;;;;;5095991;28;20089;-68
2021/06/06 12:02:48;;;;;;;8.82;4.60;;;;;;;;;;5104585;27;20105;-66
2021/06/06 12:05:14;;;;;;;11.30;6.90;;;;;;;;;;5130504;27;20079;-71
2021/06/06 12:07:44;;;;;;;15.03;4.03;;;;;;;;;;5137678;27;20737;-69
2021/06/06 12:10:21;;;;;;;16.13;7.85;;;;;;;;;;5135930;27;20271;-72
2021/06/06 12:12:49;;;;;;;6.00;4.22;;;;;;;;;;5125199;27;20024;-70
2021/06/06 12:15:21;;;;;;;5.07;4.65;;;;;;;;;;5118086;27;20022;-67
2021/06/06 12:17:48;;;;;;;8.63;4.55;;;;;;;;;;5124186;27;20023;-69
2021/06/06 12:20:17;;;;;;;4.90;4.35;;;;;;;;;;5104397;28;20023;-72
2021/06/06 12:22:43;;;;;;;8.68;4.50;;;;;;;;;;5125450;27;20011;-70
2021/06/06 12:25:12;;;;;;;6.53;4.40;;;;;;;;;;5127660;27;20015;-71
2021/06/06 12:27:40;;;;;;;4.60;3.15;;;;;;;;;;5121982;27;20022;-70
2021/06/06 12:30:17;;;;;;;6.63;4.68;;;;;;;;;;5082638;28;20447;-69
2021/06/06 12:32:51;;;;;;;8.05;4.13;;;;;;;;;;5086329;28;20109;-71
2021/06/06 12:35:25;;;;;;;4.75;4.35;;;;;;;;;;5105218;28;20020;-72
2021/06/06 12:37:54;;;;;;;7.78;4.20;;;;;;;;;;5101690;28;20024;-68
2021/06/06 12:40:22;;;;;;;3.75;3.55;;;;;;;;;;5116714;27;20049;-70
2021/06/06 12:42:49;;;;;;;5.38;4.60;;;;;;;;;;5108876;27;20041;-71
2021/06/06 12:45:16;;;;;;;4.22;3.92;;;;;;;;;;5107193;27;20015;-69
2021/06/06 12:47:44;;;;;;;13.68;12.43;;;;;;;;;;5104840;28;20020;-71
2021/06/06 12:50:16;;;;;;;6.65;5.93;;;;;;;;;;5097875;28;20047;-69
2021/06/06 12:52:52;;;;;;;12.77;6.20;;;;;;;;;;5116402;28;20372;-72
2021/06/06 12:55:24;;;;;;;7.80;4.50;;;;;;;;;;5098407;28;20476;-72
2021/06/06 12:57:52;;;;;;;6.00;4.72;;;;;;;;;;5094902;28;20298;-70
2021/06/06 13:00:21;;;;;;;5.45;4.60;;;;;;;;;;5116484;28;20407;-70
2021/06/06 13:02:48;;;;;;;8.52;5.95;;;;;;;;;;5116572;28;20023;-70
2021/06/06 13:05:28;;;;;;;9.23;5.53;;;;;;;;;;5096383;28;20022;-72
2021/06/06 13:07:55;;;;;;;5.82;5.28;;;;;;;;;;5114821;28;20384;-69
2021/06/06 13:10:33;;;;;;;8.05;5.50;;;;;;;;;;5097208;28;20015;-70
2021/06/06 13:13:00;;;;;;;8.02;6.10;;;;;;;;;;5115123;28;20080;-69
2021/06/06 13:15:32;;;;;;;6.03;5.50;;;;;;;;;;5115284;28;20019;-70
2021/06/06 13:17:58;;;;;;;5.97;5.57;;;;;;;;;;5114923;28;20614;-72
2021/06/06 13:20:29;;;;;;;6.45;5.85;;;;;;;;;;5115949;28;20055;-71
2021/06/06 13:23:03;;;;;;;7.72;5.18;;;;;;;;;;5116134;28;20020;-72
2021/06/06 13:25:34;;;;;;;5.72;5.15;;;;;;;;;;5114297;28;20435;-71
2021/06/06 13:28:11;;;;;;;6.18;5.65;;;;;;;;;;5094930;28;20087;-73
2021/06/06 13:30:48;;;;;;;7.25;5.55;;;;;;;;;;5112782;28;20008;-73
2021/06/06 13:33:15;;;;;;;7.88;5.32;;;;;;;;;;5111277;28;20027;-71
2021/06/06 13:35:41;;;;;;;;;;;;;;;;;;5089791;28;20018;-71
2021/06/06 13:38:07;;;;;;;6.50;5.55;;;;;;;;;;5111621;28;19903;-72
2021/06/06 13:40:41;;;;;;;5.97;5.13;;;;;;;;;;5112400;28;20023;-74
2021/06/06 13:43:07;;;;;;;6.53;5.32;;;;;;;;;;5112308;28;20143;-72
2021/06/06 13:45:33;;;;;;;6.97;6.37;;;;;;;;;;5113850;28;20024;-72
2021/06/06 13:48:01;;;;;;;7.63;5.88;;;;;;;;;;5114374;28;20019;-71
2021/06/06 13:50:32;;;;;;;5.72;4.93;;;;;;;;;;5114247;28;20043;-71
2021/06/06 13:52:58;;;;;;;9.93;5.40;;;;;;;;;;5113604;28;20015;-71
2021/06/06 13:55:28;;;;;;;10.10;5.95;;;;;;;;;;5095608;28;20031;-72
2021/06/06 13:57:54;;;;;;;7.88;5.32;;;;;;;;;;5114428;28;20024;-72
2021/06/06 14:00:20;;;;;;;8.85;4.72;;;;;;;;;;5110944;28;20055;-71
2021/06/06 14:02:48;;;;;;;5.50;5.05;;;;;;;;;;5114320;28;20019;-70
2021/06/06 14:05:15;;;;;;;8.85;5.60;;;;;;;;;;5114294;28;20444;-71
2021/06/06 14:07:41;;;;;;;5.32;5.03;;;;;;;;;;5111069;28;20016;-71
2021/06/06 14:10:10;;;;;;;5.50;5.00;;;;;;;;;;5113518;28;20018;-70
2021/06/06 14:12:38;;;;;;;5.80;5.20;;;;;;;;;;5112117;28;20020;-70
2021/06/06 14:15:05;;;;;;;6.60;5.20;;;;;;;;;;5093990;28;20019;-73
2021/06/06 14:17:32;;;;;;;6.13;4.85;;;;;;;;;;5112644;28;20016;-70
2021/06/06 14:19:58;;;;;;;5.50;5.10;;;;;;;;;;5113135;28;20085;-70
2021/06/06 14:22:25;;;;;;;5.10;4.73;;;;;;;;;;5114073;28;20023;-71
2021/06/06 14:24:51;;;;;;;5.20;4.70;;;;;;;;;;5115158;28;20250;-71
2021/06/06 14:27:17;;;;;;;6.63;4.87;;;;;;;;;;5114992;28;20241;-70
2021/06/06 14:29:43;;;;;;;8.67;5.97;;;;;;;;;;5096459;28;20363;-70
2021/06/06 14:32:11;;;;;;;5.57;5.18;;;;;;;;;;5114778;28;20027;-71
2021/06/06 14:34:37;;;;;;;4.68;4.32;;;;;;;;;;5096236;28;20020;-71
2021/06/06 14:37:04;;;;;;;8.90;5.53;;;;;;;;;;5097364;28;20012;-72
2021/06/06 14:39:31;;;;;;;6.75;4.72;;;;;;;;;;5114955;28;20467;-72
2021/06/06 14:41:57;;;;;;;4.65;4.18;;;;;;;;;;5114414;28;20031;-71
2021/06/06 14:44:23;;;;;;;7.50;4.87;;;;;;;;;;5114965;28;20072;-70